createdAt,value
2023-05-06T00:00:43.482Z,2.70
2023-05-06T00:03:14.821Z,2.53
2023-05-06T00:05:42.523Z,8.25
2023-05-06T00:08:09.796Z,2.20
2023-05-06T00:10:36.759Z,3.15
2023-05-06T00:13:04.801Z,2.70
2023-05-06T00:15:32.301Z,2.45
2023-05-06T00:18:01.216Z,2.30
2023-05-06T00:20:28.841Z,2.85
2023-05-06T00:22:56.140Z,3.22
2023-05-06T00:25:23.147Z,2.85
2023-05-06T00:27:50.474Z,2.70
2023-05-06T00:30:17.492Z,2.60
2023-05-06T00:32:44.810Z,2.13
2023-05-06T00:35:12.533Z,3.92
2023-05-06T00:37:39.870Z,3.00
2023-05-06T00:40:08.103Z,2.78
2023-05-06T00:42:35.506Z,4.70
2023-05-06T00:45:02.548Z,2.35
2023-05-06T00:47:30.374Z,5.15
2023-05-06T00:49:57.499Z,3.05
2023-05-06T00:52:24.825Z,2.80
2023-05-06T00:54:51.891Z,2.38
2023-05-06T00:57:19.290Z,2.60
2023-05-06T00:59:46.328Z,3.28
2023-05-06T01:02:13.678Z,2.47
2023-05-06T01:04:41.539Z,3.25
2023-05-06T01:07:30.923Z,3.22
2023-05-06T01:10:03.142Z,3.47
2023-05-06T01:12:43.017Z,2.83
2023-05-06T01:15:23.538Z,3.83
2023-05-06T01:17:53.437Z,3.42
2023-05-06T01:20:22.107Z,2.40
2023-05-06T01:22:49.952Z,3.00
2023-05-06T01:25:23.774Z,3.78
2023-05-06T01:27:51.065Z,4.43
2023-05-06T01:30:19.925Z,2.78
2023-05-06T01:33:00.673Z,2.60
2023-05-06T01:35:52.127Z,2.65
2023-05-06T01:38:32.667Z,3.10
2023-05-06T01:41:01.701Z,3.45
2023-05-06T01:43:33.346Z,3.03
2023-05-06T01:46:02.642Z,3.20
2023-05-06T01:48:33.647Z,2.13
2023-05-06T01:51:01.421Z,2.65
2023-05-06T01:53:28.702Z,2.40
2023-05-06T01:55:55.738Z,3.10
2023-05-06T01:58:23.071Z,2.13
2023-05-06T02:00:50.090Z,3.00
2023-05-06T02:03:17.460Z,2.40
2023-05-06T02:05:44.689Z,2.65
2023-05-06T02:08:12.007Z,2.70
2023-05-06T02:10:39.314Z,2.90
2023-05-06T02:13:10.807Z,2.95
2023-05-06T02:15:38.004Z,3.53
2023-05-06T02:18:07.608Z,2.33
2023-05-06T02:20:35.372Z,8.15
2023-05-06T02:23:02.844Z,2.47
2023-05-06T02:25:30.061Z,2.05
2023-05-06T02:27:57.352Z,3.20
2023-05-06T02:30:24.333Z,4.80
2023-05-06T02:32:51.764Z,3.00
2023-05-06T02:35:18.855Z,2.97
2023-05-06T02:37:46.181Z,2.63
2023-05-06T02:40:13.315Z,1.98
2023-05-06T02:42:41.206Z,2.70
2023-05-06T02:45:08.954Z,2.35
2023-05-06T02:47:36.535Z,2.10
2023-05-06T02:50:04.413Z,2.65
2023-05-06T02:52:33.384Z,3.75
2023-05-06T02:55:01.204Z,2.10
2023-05-06T02:57:28.674Z,2.83
2023-05-06T02:59:55.983Z,4.22
2023-05-06T03:02:23.507Z,4.43
2023-05-06T03:04:51.018Z,2.00
2023-05-06T03:07:18.924Z,2.30
2023-05-06T03:09:46.179Z,2.53
2023-05-06T03:12:13.456Z,2.08
2023-05-06T03:14:40.435Z,2.35
2023-05-06T03:17:07.823Z,2.30
2023-05-06T03:19:36.825Z,2.15
2023-05-06T03:22:06.388Z,2.28
2023-05-06T03:24:35.975Z,1.88
2023-05-06T03:27:05.936Z,3.20
2023-05-06T03:29:33.371Z,2.45
2023-05-06T03:32:05.187Z,2.55
2023-05-06T03:34:37.876Z,2.17
2023-05-06T03:37:06.931Z,2.45
2023-05-06T03:39:34.994Z,2.20
2023-05-06T03:42:03.062Z,2.42
2023-05-06T03:44:30.321Z,2.95
2023-05-06T03:46:58.335Z,2.83
2023-05-06T03:49:26.136Z,2.28
2023-05-06T03:51:53.648Z,2.28
2023-05-06T03:54:23.053Z,2.30
2023-05-06T03:56:50.596Z,2.22
2023-05-06T03:59:17.842Z,2.78
2023-05-06T04:01:46.186Z,3.03
2023-05-06T04:04:14.606Z,3.13
2023-05-06T04:06:42.011Z,2.00
2023-05-06T04:09:09.601Z,1.75
2023-05-06T04:11:39.505Z,2.20
2023-05-06T04:14:08.434Z,2.00
2023-05-06T04:16:36.315Z,2.10
2023-05-06T04:19:05.737Z,2.40
2023-05-06T04:21:35.175Z,2.33
2023-05-06T04:24:07.049Z,2.10
2023-05-06T04:26:38.263Z,3.60
2023-05-06T04:29:05.723Z,3.53
2023-05-06T04:31:37.118Z,2.60
2023-05-06T04:34:07.838Z,2.40
2023-05-06T04:36:36.118Z,2.65
2023-05-06T04:39:16.294Z,3.47
2023-05-06T04:41:44.562Z,1.80
2023-05-06T04:44:15.213Z,1.92
2023-05-06T04:46:45.690Z,2.08
2023-05-06T04:49:13.087Z,3.00
2023-05-06T04:51:42.037Z,2.00
2023-05-06T04:54:09.721Z,2.50
2023-05-06T04:56:38.582Z,5.05
2023-05-06T04:59:07.550Z,14.50
2023-05-06T05:01:36.707Z,2.40
2023-05-06T05:04:03.975Z,2.17
2023-05-06T05:06:32.023Z,2.30
2023-05-06T05:08:59.961Z,1.98
2023-05-06T05:11:28.465Z,2.83
2023-05-06T05:13:59.475Z,2.38
2023-05-06T05:16:28.507Z,2.33
2023-05-06T05:18:56.488Z,2.33
2023-05-06T05:21:27.911Z,2.38
2023-05-06T05:23:56.356Z,1.80
2023-05-06T05:26:23.780Z,2.60
2023-05-06T05:28:53.385Z,2.70
2023-05-06T05:31:21.127Z,1.55
2023-05-06T05:33:48.578Z,2.78
2023-05-06T05:36:19.405Z,1.90
2023-05-06T05:38:48.177Z,2.00
2023-05-06T05:41:17.573Z,2.30
2023-05-06T05:43:45.596Z,3.08
2023-05-06T05:46:13.092Z,2.47
2023-05-06T05:48:41.971Z,2.40
2023-05-06T05:51:11.158Z,2.30
2023-05-06T05:53:38.282Z,2.80
2023-05-06T05:56:07.784Z,2.42
2023-05-06T05:58:35.651Z,2.63
2023-05-06T06:01:04.324Z,2.70
2023-05-06T06:03:32.536Z,2.60
2023-05-06T06:06:01.790Z,2.42
2023-05-06T06:08:32.001Z,2.75
2023-05-06T06:10:59.440Z,2.60
2023-05-06T06:13:32.777Z,2.70
2023-05-06T06:16:00.963Z,2.72
2023-05-06T06:18:28.020Z,2.78
2023-05-06T06:20:55.424Z,2.78
2023-05-06T06:23:22.742Z,4.63
2023-05-06T06:25:50.329Z,2.30
2023-05-06T06:28:17.751Z,2.45
2023-05-06T06:30:45.926Z,2.55
2023-05-06T06:33:12.926Z,2.28
2023-05-06T06:35:41.079Z,2.17
2023-05-06T06:38:08.092Z,1.88
2023-05-06T06:40:35.546Z,2.10
2023-05-06T06:43:03.052Z,2.13
2023-05-06T06:45:48.311Z,1.90
2023-05-06T06:48:15.611Z,2.65
2023-05-06T06:50:43.218Z,2.45
2023-05-06T06:53:10.890Z,3.35
2023-05-06T06:55:39.900Z,4.75
2023-05-06T06:58:06.934Z,3.53
2023-05-06T07:00:34.273Z,2.17
2023-05-06T07:03:01.333Z,2.53
2023-05-06T07:05:30.984Z,2.55
2023-05-06T07:07:58.086Z,2.63
2023-05-06T07:10:25.845Z,2.50
2023-05-06T07:12:52.977Z,4.15
2023-05-06T07:15:20.494Z,3.15
2023-05-06T07:17:47.725Z,3.60
2023-05-06T07:20:16.203Z,2.40
2023-05-06T07:22:45.725Z,4.55
2023-05-06T07:25:16.248Z,2.80
2023-05-06T07:27:49.190Z,3.05
2023-05-06T07:30:16.699Z,2.67
2023-05-06T07:32:43.783Z,2.97
2023-05-06T07:35:11.225Z,11.10
2023-05-06T07:37:38.522Z,13.32
2023-05-06T07:40:06.812Z,9.13
2023-05-06T07:42:33.856Z,3.30
2023-05-06T07:45:01.196Z,2.60
2023-05-06T07:47:30.175Z,4.53
2023-05-06T07:49:58.278Z,5.72
2023-05-06T07:52:25.549Z,3.50
2023-05-06T07:54:53.336Z,2.47
2023-05-06T07:57:22.267Z,3.50
2023-05-06T07:59:51.244Z,5.85
2023-05-06T08:02:19.072Z,4.70
2023-05-06T08:04:46.972Z,2.58
2023-05-06T08:07:15.808Z,3.20
2023-05-06T08:09:46.753Z,2.90
2023-05-06T08:12:15.855Z,3.17
2023-05-06T08:14:46.727Z,2.78
2023-05-06T08:17:14.355Z,2.80
2023-05-06T08:19:41.789Z,2.85
2023-05-06T08:22:08.843Z,5.57
2023-05-06T08:24:36.197Z,2.80
2023-05-06T08:27:03.363Z,3.70
2023-05-06T08:29:30.964Z,2.40
2023-05-06T08:31:59.298Z,3.13
2023-05-06T08:34:26.885Z,5.90
2023-05-06T08:36:53.945Z,2.83
2023-05-06T08:39:21.281Z,5.80
2023-05-06T08:41:52.252Z,3.38
2023-05-06T08:44:23.217Z,2.85
2023-05-06T08:46:50.765Z,2.60
2023-05-06T08:49:18.508Z,2.58
2023-05-06T08:51:46.219Z,2.20
2023-05-06T08:54:13.629Z,2.10
2023-05-06T08:56:46.394Z,2.20
2023-05-06T08:59:13.906Z,1.80
2023-05-06T09:01:41.454Z,2.08
2023-05-06T09:04:13.249Z,2.53
2023-05-06T09:06:44.851Z,2.50
2023-05-06T09:09:13.057Z,1.52
2023-05-06T09:11:40.728Z,2.03
2023-05-06T09:14:13.157Z,1.80
2023-05-06T09:16:45.354Z,2.53
2023-05-06T09:19:13.697Z,3.60
2023-05-06T09:21:43.587Z,3.33
2023-05-06T09:24:12.192Z,2.83
2023-05-06T09:26:42.310Z,2.00
2023-05-06T09:29:12.375Z,2.83
2023-05-06T09:31:45.354Z,5.85
2023-05-06T09:34:13.411Z,3.40
2023-05-06T09:36:44.706Z,2.05
2023-05-06T09:39:12.130Z,2.28
2023-05-06T09:41:43.112Z,2.63
2023-05-06T09:44:11.553Z,2.35
2023-05-06T09:46:39.263Z,2.30
2023-05-06T09:49:06.539Z,3.22
2023-05-06T09:51:34.116Z,3.00
2023-05-06T09:54:01.897Z,1.73
2023-05-06T09:56:31.235Z,3.20
2023-05-06T09:59:01.252Z,3.20
2023-05-06T10:01:36.664Z,2.35
2023-05-06T10:04:08.124Z,2.35
2023-05-06T10:06:39.763Z,2.50
2023-05-06T10:09:09.186Z,3.78
2023-05-06T10:11:37.235Z,3.33
2023-05-06T10:14:05.124Z,3.60
2023-05-06T10:16:37.891Z,3.75
2023-05-06T10:19:07.404Z,3.33
2023-05-06T10:21:38.946Z,2.85
2023-05-06T10:24:09.414Z,2.45
2023-05-06T10:26:38.007Z,2.40
2023-05-06T10:29:09.898Z,12.82
2023-05-06T10:31:46.946Z,2.58
2023-05-06T10:34:16.422Z,2.67
2023-05-06T10:36:46.143Z,2.65
2023-05-06T10:39:14.310Z,2.30
2023-05-06T10:41:41.878Z,2.50
2023-05-06T10:44:10.156Z,2.95
2023-05-06T10:46:56.979Z,2.22
2023-05-06T10:49:24.012Z,2.25
2023-05-06T10:52:14.382Z,2.72
2023-05-06T10:54:51.591Z,2.60
2023-05-06T10:57:21.866Z,3.22
2023-05-06T10:59:49.418Z,2.22
2023-05-06T11:02:20.263Z,2.45
2023-05-06T11:05:01.632Z,3.30
2023-05-06T11:07:29.228Z,2.90
2023-05-06T11:10:01.456Z,2.58
2023-05-06T11:12:52.522Z,2.47
2023-05-06T11:15:24.367Z,4.28
2023-05-06T11:17:53.891Z,2.33
2023-05-06T11:20:25.687Z,2.15
2023-05-06T11:22:53.858Z,2.03
2023-05-06T11:25:41.235Z,2.58
2023-05-06T11:28:13.390Z,2.92
2023-05-06T11:30:53.634Z,2.75
2023-05-06T11:33:23.840Z,5.03
2023-05-06T11:35:50.848Z,4.75
2023-05-06T11:38:19.785Z,4.30
2023-05-06T11:40:48.737Z,7.05
2023-05-06T11:43:16.795Z,8.07
2023-05-06T11:45:50.803Z,6.65
2023-05-06T11:48:18.774Z,8.65
2023-05-06T11:50:49.388Z,8.73
2023-05-06T11:53:19.186Z,9.73
2023-05-06T11:55:47.239Z,14.70
2023-05-06T11:58:26.692Z,9.52
2023-05-06T12:01:01.639Z,7.00
2023-05-06T12:03:31.428Z,6.32
2023-05-06T12:05:59.341Z,5.18
2023-05-06T12:08:33.110Z,6.85
2023-05-06T12:11:06.540Z,11.95
2023-05-06T12:13:36.955Z,12.95
2023-05-06T12:16:05.899Z,6.75
2023-05-06T12:18:33.873Z,6.65
2023-05-06T12:21:04.290Z,7.10
2023-05-06T12:23:31.764Z,6.03
2023-05-06T12:26:04.310Z,6.15
2023-05-06T12:28:33.664Z,5.60
2023-05-06T12:31:17.442Z,7.13
2023-05-06T12:33:46.317Z,4.65
2023-05-06T12:36:13.498Z,5.20
2023-05-06T12:38:53.685Z,7.20
2023-05-06T12:41:21.409Z,5.07
2023-05-06T12:43:48.844Z,4.53
2023-05-06T12:46:17.371Z,4.95
2023-05-06T12:49:01.134Z,6.10
2023-05-06T12:51:30.646Z,4.00
2023-05-06T12:53:58.283Z,5.65
2023-05-06T12:56:25.326Z,2.97
2023-05-06T12:59:02.392Z,3.65
2023-05-06T13:01:29.637Z,5.32
2023-05-06T13:03:59.758Z,4.38
2023-05-06T13:06:26.759Z,6.97
2023-05-06T13:08:54.103Z,3.75
2023-05-06T13:11:22.258Z,3.60
2023-05-06T13:13:49.658Z,6.10
2023-05-06T13:16:19.381Z,3.20
2023-05-06T13:18:46.700Z,5.03
2023-05-06T13:21:14.114Z,5.57
2023-05-06T13:23:47.088Z,4.35
2023-05-06T13:26:14.956Z,5.13
2023-05-06T13:28:42.491Z,2.83
2023-05-06T13:31:10.999Z,3.67
2023-05-06T13:33:38.551Z,3.45
2023-05-06T13:36:06.354Z,6.25
2023-05-06T13:38:33.808Z,3.53
2023-05-06T13:41:00.932Z,2.55
2023-05-06T13:43:28.745Z,3.13
2023-05-06T13:45:55.865Z,3.10
2023-05-06T13:48:23.244Z,3.30
2023-05-06T13:50:50.282Z,9.05
2023-05-06T13:53:17.841Z,2.55
2023-05-06T13:55:45.850Z,3.63
2023-05-06T13:58:13.170Z,3.53
2023-05-06T14:00:40.244Z,2.40
2023-05-06T14:03:08.949Z,4.32
2023-05-06T14:05:36.196Z,2.58
2023-05-06T14:08:06.421Z,2.40
2023-05-06T14:10:33.409Z,3.70
2023-05-06T14:13:01.149Z,4.82
2023-05-06T14:15:28.125Z,3.35
2023-05-06T14:17:55.500Z,2.55
2023-05-06T14:20:22.666Z,3.70
2023-05-06T14:22:50.009Z,2.35
2023-05-06T14:25:17.482Z,3.95
2023-05-06T14:27:45.608Z,4.30
2023-05-06T14:30:13.149Z,4.53
2023-05-06T14:32:41.003Z,2.65
2023-05-06T14:35:09.166Z,2.72
2023-05-06T14:37:39.174Z,3.35
2023-05-06T14:40:07.055Z,10.65
2023-05-06T14:42:35.795Z,11.63
2023-05-06T14:45:02.988Z,6.65
2023-05-06T14:47:30.411Z,23.02
2023-05-06T14:49:58.096Z,26.38
2023-05-06T14:52:25.806Z,19.60
2023-05-06T14:54:53.165Z,5.60
2023-05-06T14:57:20.616Z,2.92
2023-05-06T14:59:47.617Z,2.72
2023-05-06T15:02:14.995Z,2.90
2023-05-06T15:04:42.737Z,1.85
2023-05-06T15:07:10.823Z,4.15
2023-05-06T15:09:40.121Z,2.95
2023-05-06T15:12:07.690Z,3.00
2023-05-06T15:14:34.714Z,3.83
2023-05-06T15:17:02.123Z,3.38
2023-05-06T15:19:32.472Z,2.85
2023-05-06T15:22:00.682Z,2.60
2023-05-06T15:24:27.886Z,3.65
2023-05-06T15:26:55.320Z,12.85
2023-05-06T15:29:22.419Z,8.65
2023-05-06T15:31:49.662Z,14.65
2023-05-06T15:34:16.840Z,7.95
2023-05-06T15:36:44.394Z,3.50
2023-05-06T15:39:12.645Z,6.25
2023-05-06T15:41:40.004Z,12.88
2023-05-06T15:44:07.197Z,12.93
2023-05-06T15:46:34.596Z,8.77
2023-05-06T15:49:26.155Z,8.15
2023-05-06T15:51:49.575Z,12.80
2023-05-06T15:54:18.391Z,4.10
2023-05-06T15:56:46.614Z,5.20
2023-05-06T15:59:13.756Z,5.25
2023-05-06T16:02:24.658Z,4.07
2023-05-06T16:04:29.922Z,3.92
2023-05-06T16:06:57.782Z,4.25
2023-05-06T16:09:25.171Z,6.05
2023-05-06T16:11:54.631Z,2.40
2023-05-06T16:14:21.944Z,2.10
2023-05-06T16:16:49.238Z,3.60
2023-05-06T16:19:16.462Z,18.50
2023-05-06T16:21:46.130Z,4.47
2023-05-06T16:24:13.459Z,2.90
2023-05-06T16:26:41.768Z,6.45
2023-05-06T16:29:08.802Z,3.40
2023-05-06T16:31:37.501Z,3.80
2023-05-06T16:34:04.595Z,5.53
2023-05-06T16:36:31.990Z,3.72
2023-05-06T16:38:58.938Z,3.67
2023-05-06T16:41:26.550Z,3.45
2023-05-06T16:43:54.011Z,5.65
2023-05-06T16:46:23.955Z,29.63
2023-05-06T16:48:52.598Z,3.65
2023-05-06T16:51:20.143Z,4.20
2023-05-06T16:53:51.689Z,5.70
2023-05-06T16:56:19.089Z,4.32
2023-05-06T16:58:46.104Z,2.50
2023-05-06T17:01:13.430Z,15.75
2023-05-06T17:03:40.841Z,10.55
2023-05-06T17:06:08.291Z,12.88
2023-05-06T17:08:36.873Z,7.03
2023-05-06T17:11:07.848Z,6.38
2023-05-06T17:13:35.477Z,9.02
2023-05-06T17:16:02.890Z,2.92
2023-05-06T17:18:29.901Z,4.47
2023-05-06T17:20:58.146Z,18.88
2023-05-06T17:23:25.272Z,19.13
2023-05-06T17:25:52.542Z,17.52
2023-05-06T17:28:19.726Z,7.22
2023-05-06T17:30:50.528Z,19.75
2023-05-06T17:33:20.720Z,4.50
2023-05-06T17:35:48.106Z,7.30
2023-05-06T17:38:18.576Z,14.95
2023-05-06T17:40:47.407Z,30.65
2023-05-06T17:43:14.575Z,13.15
2023-05-06T17:45:42.305Z,23.25
2023-05-06T17:48:09.975Z,14.93
2023-05-06T17:50:37.526Z,12.23
2023-05-06T17:53:04.599Z,20.67
2023-05-06T17:55:34.876Z,49.45
2023-05-06T17:58:02.151Z,97.28
2023-05-06T18:00:29.758Z,46.38
2023-05-06T18:02:57.919Z,76.00
2023-05-06T18:05:26.327Z,103.82
2023-05-06T18:07:53.542Z,47.00
2023-05-06T18:10:21.056Z,62.03
2023-05-06T18:12:48.283Z,42.83
2023-05-06T18:15:15.660Z,66.43
2023-05-06T18:17:42.794Z,35.75
2023-05-06T18:20:10.780Z,18.63
2023-05-06T18:22:46.375Z,10.90
2023-05-06T18:25:14.050Z,25.67
2023-05-06T18:27:41.039Z,28.15
2023-05-06T18:30:08.736Z,19.98
2023-05-06T18:32:36.050Z,24.58
2023-05-06T18:35:03.738Z,34.80
2023-05-06T18:37:31.034Z,22.83
2023-05-06T18:39:58.612Z,13.88
2023-05-06T18:42:27.525Z,7.72
2023-05-06T18:44:56.499Z,6.18
2023-05-06T18:47:25.696Z,16.27
2023-05-06T18:49:53.516Z,37.92
2023-05-06T18:52:20.728Z,23.02
2023-05-06T18:54:48.111Z,21.33
2023-05-06T18:57:18.810Z,26.05
2023-05-06T18:59:46.472Z,38.30
2023-05-06T19:02:15.919Z,47.20
2023-05-06T19:04:43.706Z,52.05
2023-05-06T19:07:16.460Z,45.72
2023-05-06T19:09:45.474Z,56.10
2023-05-06T19:12:12.583Z,25.25
2023-05-06T19:14:41.190Z,33.30
2023-05-06T19:17:08.750Z,41.92
2023-05-06T19:19:36.553Z,49.35
2023-05-06T19:22:04.173Z,33.20
2023-05-06T19:24:31.777Z,34.75
2023-05-06T19:27:01.988Z,41.83
2023-05-06T19:29:29.572Z,42.63
2023-05-06T19:31:59.353Z,43.58
2023-05-06T19:34:27.102Z,35.13
2023-05-06T19:36:54.405Z,30.58
2023-05-06T19:39:22.029Z,22.38
2023-05-06T19:41:49.347Z,18.85
2023-05-06T19:44:16.751Z,16.30
2023-05-06T19:46:43.874Z,16.20
2023-05-06T19:49:11.253Z,22.42
2023-05-06T19:51:40.551Z,14.90
2023-05-06T19:54:08.265Z,15.20
2023-05-06T19:56:35.516Z,21.52
2023-05-06T19:59:02.790Z,24.58
2023-05-06T20:01:30.255Z,33.78
2023-05-06T20:03:59.891Z,50.92
2023-05-06T20:06:29.456Z,49.55
2023-05-06T20:08:57.061Z,46.75
2023-05-06T20:11:25.645Z,47.08
2023-05-06T20:13:53.100Z,49.70
2023-05-06T20:16:20.361Z,92.68
2023-05-06T20:18:47.888Z,86.45
2023-05-06T20:21:20.662Z,57.42
2023-05-06T20:23:48.192Z,53.03
2023-05-06T20:26:15.432Z,151.02
2023-05-06T20:28:42.868Z,88.05
2023-05-06T20:31:12.514Z,89.05
2023-05-06T20:33:40.405Z,97.07
2023-05-06T20:36:07.664Z,83.13
2023-05-06T20:38:35.006Z,89.68
2023-05-06T20:41:02.997Z,86.68
2023-05-06T20:43:30.827Z,128.20
2023-05-06T20:45:58.554Z,108.00
2023-05-06T20:48:27.765Z,96.15
2023-05-06T20:50:59.093Z,99.85
2023-05-06T20:53:27.272Z,96.93
2023-05-06T20:55:54.834Z,96.28
2023-05-06T20:58:22.272Z,95.90
2023-05-06T21:00:50.456Z,97.38
2023-05-06T21:03:20.118Z,94.53
2023-05-06T21:05:47.315Z,121.30
2023-05-06T21:08:15.470Z,123.88
2023-05-06T21:10:42.437Z,131.40
2023-05-06T21:13:10.006Z,111.63
2023-05-06T21:15:38.201Z,62.65
2023-05-06T21:18:05.715Z,42.60
2023-05-06T21:20:32.801Z,41.63
2023-05-06T21:23:00.362Z,52.92
2023-05-06T21:25:27.544Z,47.80
2023-05-06T21:27:55.772Z,36.78
2023-05-06T21:30:22.776Z,19.02
2023-05-06T21:32:51.293Z,10.98
2023-05-06T21:35:18.416Z,17.88
2023-05-06T21:37:45.914Z,30.98
2023-05-06T21:40:13.588Z,12.45
2023-05-06T21:42:41.134Z,24.48
2023-05-06T21:45:08.776Z,31.38
2023-05-06T21:47:36.446Z,32.10
2023-05-06T21:50:04.315Z,24.92
2023-05-06T21:52:32.659Z,31.52
2023-05-06T21:55:00.493Z,28.02
2023-05-06T21:57:27.823Z,31.42
2023-05-06T21:59:54.880Z,24.92
2023-05-06T22:02:22.414Z,16.17
2023-05-06T22:04:49.687Z,25.23
2023-05-06T22:07:17.341Z,24.33
2023-05-06T22:09:44.792Z,18.33
2023-05-06T22:12:12.851Z,12.63
2023-05-06T22:14:41.481Z,11.50
2023-05-06T22:17:10.579Z,11.90
2023-05-06T22:19:40.862Z,10.10
2023-05-06T22:22:08.468Z,10.52
2023-05-06T22:24:35.939Z,9.05
2023-05-06T22:27:03.291Z,11.73
2023-05-06T22:29:30.407Z,12.02
2023-05-06T22:31:59.768Z,12.15
2023-05-06T22:34:27.007Z,21.58
2023-05-06T22:36:54.300Z,16.00
2023-05-06T22:39:21.526Z,12.65
2023-05-06T22:41:50.757Z,9.35
2023-05-06T22:44:18.079Z,9.82
2023-05-06T22:46:45.636Z,31.20
2023-05-06T22:49:12.818Z,33.88
2023-05-06T22:51:41.303Z,10.80
2023-05-06T22:54:08.323Z,45.17
2023-05-06T22:56:35.635Z,16.27
2023-05-06T22:59:02.767Z,15.45
2023-05-06T23:01:32.101Z,21.77
2023-05-06T23:04:00.342Z,22.33
2023-05-06T23:06:27.991Z,21.85
2023-05-06T23:08:54.993Z,18.63
2023-05-06T23:11:22.470Z,19.85
2023-05-06T23:13:49.520Z,22.83
2023-05-06T23:16:16.851Z,29.95
2023-05-06T23:18:43.871Z,41.92
2023-05-06T23:21:12.635Z,19.15
2023-05-06T23:23:39.831Z,16.85
2023-05-06T23:26:07.076Z,33.88
2023-05-06T23:28:34.121Z,14.65
2023-05-06T23:31:01.647Z,11.20
2023-05-06T23:33:28.828Z,10.05
2023-05-06T23:35:56.089Z,11.15
2023-05-06T23:38:23.041Z,10.60
2023-05-06T23:40:50.870Z,8.80
2023-05-06T23:43:17.868Z,9.85
2023-05-06T23:45:45.229Z,14.57
2023-05-06T23:48:12.533Z,13.60
2023-05-06T23:50:41.104Z,14.63
2023-05-06T23:53:08.078Z,13.43
2023-05-06T23:55:35.833Z,14.00
2023-05-06T23:58:03.261Z,15.63
